sensor_id;sensor_type;location;lat;lon;timestamp;P1;durP1;ratioP1;P2;durP2;ratioP2
47161;SDS011;32921;53.256;8.198;2023-04-24T00:01:38;10.55;;;8.25;;
47161;SDS011;32921;53.256;8.198;2023-04-24T00:04:04;11.65;;;8.00;;
47161;SDS011;32921;53.256;8.198;2023-04-24T00:06:31;10.43;;;7.38;;
47161;SDS011;32921;53.256;8.198;2023-04-24T00:08:59;11.23;;;8.27;;
47161;SDS011;32921;53.256;8.198;2023-04-24T00:11:26;12.13;;;7.43;;
47161;SDS011;32921;53.256;8.198;2023-04-24T00:13:51;12.40;;;7.28;;
47161;SDS011;32921;53.256;8.198;2023-04-24T00:16:17;11.27;;;6.93;;
47161;SDS011;32921;53.256;8.198;2023-04-24T00:18:43;8.35;;;6.60;;
47161;SDS011;32921;53.256;8.198;2023-04-24T00:21:09;10.00;;;5.95;;
47161;SDS011;32921;53.256;8.198;2023-04-24T00:23:35;6.72;;;3.83;;
47161;SDS011;32921;53.256;8.198;2023-04-24T00:26:01;4.20;;;2.60;;
47161;SDS011;32921;53.256;8.198;2023-04-24T00:28:27;1.90;;;1.48;;
47161;SDS011;32921;53.256;8.198;2023-04-24T00:30:52;2.38;;;1.40;;
47161;SDS011;32921;53.256;8.198;2023-04-24T00:33:18;2.28;;;1.30;;
47161;SDS011;32921;53.256;8.198;2023-04-24T00:35:44;1.63;;;1.02;;
47161;SDS011;32921;53.256;8.198;2023-04-24T00:38:09;1.88;;;1.23;;
47161;SDS011;32921;53.256;8.198;2023-04-24T00:40:35;1.02;;;0.98;;
47161;SDS011;32921;53.256;8.198;2023-04-24T00:43:01;1.27;;;0.98;;
47161;SDS011;32921;53.256;8.198;2023-04-24T00:45:26;1.40;;;1.25;;
47161;SDS011;32921;53.256;8.198;2023-04-24T00:47:52;1.20;;;1.08;;
47161;SDS011;32921;53.256;8.198;2023-04-24T00:50:18;2.65;;;1.00;;
47161;SDS011;32921;53.256;8.198;2023-04-24T00:52:46;1.92;;;1.15;;
47161;SDS011;32921;53.256;8.198;2023-04-24T00:55:12;1.10;;;1.00;;
47161;SDS011;32921;53.256;8.198;2023-04-24T00:57:37;2.22;;;1.23;;
47161;SDS011;32921;53.256;8.198;2023-04-24T01:03:01;1.63;;;1.40;;
47161;SDS011;32921;53.256;8.198;2023-04-24T01:05:29;2.20;;;1.42;;
47161;SDS011;32921;53.256;8.198;2023-04-24T01:07:55;3.72;;;1.60;;
47161;SDS011;32921;53.256;8.198;2023-04-24T01:10:21;1.92;;;1.50;;
47161;SDS011;32921;53.256;8.198;2023-04-24T01:12:49;1.80;;;1.50;;
47161;SDS011;32921;53.256;8.198;2023-04-24T01:15:15;2.40;;;1.90;;
47161;SDS011;32921;53.256;8.198;2023-04-24T01:17:41;1.98;;;1.75;;
47161;SDS011;32921;53.256;8.198;2023-04-24T01:20:06;2.85;;;1.90;;
47161;SDS011;32921;53.256;8.198;2023-04-24T01:22:33;2.92;;;2.30;;
47161;SDS011;32921;53.256;8.198;2023-04-24T01:24:59;2.50;;;2.30;;
47161;SDS011;32921;53.256;8.198;2023-04-24T01:27:25;4.47;;;2.80;;
47161;SDS011;32921;53.256;8.198;2023-04-24T01:29:50;2.70;;;2.25;;
47161;SDS011;32921;53.256;8.198;2023-04-24T01:32:17;2.85;;;2.55;;
47161;SDS011;32921;53.256;8.198;2023-04-24T01:34:43;3.38;;;2.75;;
47161;SDS011;32921;53.256;8.198;2023-04-24T01:37:09;3.67;;;2.85;;
47161;SDS011;32921;53.256;8.198;2023-04-24T01:39:35;5.85;;;2.90;;
47161;SDS011;32921;53.256;8.198;2023-04-24T01:42:01;3.50;;;2.70;;
47161;SDS011;32921;53.256;8.198;2023-04-24T01:44:27;2.83;;;2.40;;
47161;SDS011;32921;53.256;8.198;2023-04-24T01:46:53;3.75;;;2.67;;
47161;SDS011;32921;53.256;8.198;2023-04-24T01:49:20;5.07;;;2.65;;
47161;SDS011;32921;53.256;8.198;2023-04-24T01:51:46;3.58;;;2.40;;
47161;SDS011;32921;53.256;8.198;2023-04-24T01:54:12;4.78;;;2.90;;
47161;SDS011;32921;53.256;8.198;2023-04-24T01:56:40;4.35;;;2.95;;
47161;SDS011;32921;53.256;8.198;2023-04-24T02:01:36;4.20;;;2.75;;
47161;SDS011;32921;53.256;8.198;2023-04-24T02:04:02;4.03;;;2.85;;
47161;SDS011;32921;53.256;8.198;2023-04-24T02:06:28;3.90;;;2.72;;
47161;SDS011;32921;53.256;8.198;2023-04-24T02:08:56;4.03;;;2.83;;
47161;SDS011;32921;53.256;8.198;2023-04-24T02:11:22;5.28;;;2.70;;
47161;SDS011;32921;53.256;8.198;2023-04-24T02:13:48;5.20;;;2.95;;
47161;SDS011;32921;53.256;8.198;2023-04-24T02:16:13;5.13;;;2.80;;
47161;SDS011;32921;53.256;8.198;2023-04-24T02:18:39;4.35;;;2.90;;
47161;SDS011;32921;53.256;8.198;2023-04-24T02:21:04;4.50;;;2.55;;
47161;SDS011;32921;53.256;8.198;2023-04-24T02:23:30;4.50;;;2.72;;
47161;SDS011;32921;53.256;8.198;2023-04-24T02:25:55;2.80;;;2.15;;
47161;SDS011;32921;53.256;8.198;2023-04-24T02:28:21;4.45;;;3.00;;
47161;SDS011;32921;53.256;8.198;2023-04-24T02:30:46;3.78;;;2.70;;
47161;SDS011;32921;53.256;8.198;2023-04-24T02:33:12;7.18;;;2.88;;
47161;SDS011;32921;53.256;8.198;2023-04-24T02:35:38;4.95;;;2.80;;
47161;SDS011;32921;53.256;8.198;2023-04-24T02:38:03;3.90;;;2.97;;
47161;SDS011;32921;53.256;8.198;2023-04-24T02:40:29;3.83;;;2.90;;
47161;SDS011;32921;53.256;8.198;2023-04-24T02:42:55;4.32;;;3.00;;
47161;SDS011;32921;53.256;8.198;2023-04-24T02:45:20;4.80;;;3.20;;
47161;SDS011;32921;53.256;8.198;2023-04-24T02:47:46;3.65;;;2.58;;
47161;SDS011;32921;53.256;8.198;2023-04-24T02:50:11;5.78;;;3.50;;
47161;SDS011;32921;53.256;8.198;2023-04-24T02:52:37;6.32;;;4.40;;
47161;SDS011;32921;53.256;8.198;2023-04-24T02:55:03;5.57;;;4.20;;
47161;SDS011;32921;53.256;8.198;2023-04-24T02:57:29;8.48;;;4.97;;
47161;SDS011;32921;53.256;8.198;2023-04-24T02:59:54;8.70;;;5.70;;
47161;SDS011;32921;53.256;8.198;2023-04-24T03:02:20;8.30;;;6.00;;
47161;SDS011;32921;53.256;8.198;2023-04-24T03:04:46;8.60;;;6.80;;
47161;SDS011;32921;53.256;8.198;2023-04-24T03:07:12;9.15;;;7.10;;
47161;SDS011;32921;53.256;8.198;2023-04-24T03:09:39;8.80;;;6.68;;
47161;SDS011;32921;53.256;8.198;2023-04-24T03:12:05;9.73;;;6.65;;
47161;SDS011;32921;53.256;8.198;2023-04-24T03:14:30;8.77;;;7.20;;
47161;SDS011;32921;53.256;8.198;2023-04-24T03:16:56;11.85;;;6.90;;
47161;SDS011;32921;53.256;8.198;2023-04-24T03:19:22;10.18;;;7.20;;
47161;SDS011;32921;53.256;8.198;2023-04-24T03:21:48;13.30;;;7.50;;
47161;SDS011;32921;53.256;8.198;2023-04-24T03:24:13;9.60;;;6.80;;
47161;SDS011;32921;53.256;8.198;2023-04-24T03:26:39;9.65;;;6.90;;
47161;SDS011;32921;53.256;8.198;2023-04-24T03:29:04;9.27;;;7.20;;
47161;SDS011;32921;53.256;8.198;2023-04-24T03:31:30;10.00;;;7.32;;
47161;SDS011;32921;53.256;8.198;2023-04-24T03:33:56;10.88;;;6.80;;
47161;SDS011;32921;53.256;8.198;2023-04-24T03:36:21;12.07;;;8.00;;
47161;SDS011;32921;53.256;8.198;2023-04-24T03:38:47;10.52;;;7.70;;
47161;SDS011;32921;53.256;8.198;2023-04-24T03:41:12;10.07;;;7.10;;
47161;SDS011;32921;53.256;8.198;2023-04-24T03:43:38;11.25;;;7.63;;
47161;SDS011;32921;53.256;8.198;2023-04-24T03:46:04;10.32;;;7.38;;
47161;SDS011;32921;53.256;8.198;2023-04-24T03:48:30;11.82;;;7.72;;
47161;SDS011;32921;53.256;8.198;2023-04-24T03:50:55;9.05;;;7.22;;
47161;SDS011;32921;53.256;8.198;2023-04-24T03:53:21;9.80;;;7.22;;
47161;SDS011;32921;53.256;8.198;2023-04-24T03:55:46;10.70;;;7.57;;
47161;SDS011;32921;53.256;8.198;2023-04-24T03:58:12;8.90;;;7.07;;
47161;SDS011;32921;53.256;8.198;2023-04-24T04:00:41;9.40;;;7.35;;
47161;SDS011;32921;53.256;8.198;2023-04-24T04:03:06;10.55;;;7.47;;
47161;SDS011;32921;53.256;8.198;2023-04-24T04:05:32;9.63;;;7.43;;
47161;SDS011;32921;53.256;8.198;2023-04-24T04:07:57;9.07;;;6.63;;
47161;SDS011;32921;53.256;8.198;2023-04-24T04:10:23;9.18;;;6.68;;
47161;SDS011;32921;53.256;8.198;2023-04-24T04:12:48;9.88;;;7.40;;
47161;SDS011;32921;53.256;8.198;2023-04-24T04:15:14;9.75;;;7.80;;
47161;SDS011;32921;53.256;8.198;2023-04-24T04:17:40;9.63;;;7.22;;
47161;SDS011;32921;53.256;8.198;2023-04-24T04:20:05;10.15;;;6.47;;
47161;SDS011;32921;53.256;8.198;2023-04-24T04:22:34;11.32;;;6.18;;
47161;SDS011;32921;53.256;8.198;2023-04-24T04:25:03;8.70;;;6.50;;
47161;SDS011;32921;53.256;8.198;2023-04-24T04:27:29;8.73;;;6.47;;
47161;SDS011;32921;53.256;8.198;2023-04-24T04:29:57;8.30;;;6.25;;
47161;SDS011;32921;53.256;8.198;2023-04-24T04:32:26;8.40;;;6.35;;
47161;SDS011;32921;53.256;8.198;2023-04-24T04:34:51;8.30;;;6.30;;
47161;SDS011;32921;53.256;8.198;2023-04-24T04:37:18;8.57;;;6.20;;
47161;SDS011;32921;53.256;8.198;2023-04-24T04:39:44;9.23;;;6.68;;
47161;SDS011;32921;53.256;8.198;2023-04-24T04:42:09;7.88;;;5.60;;
47161;SDS011;32921;53.256;8.198;2023-04-24T04:44:35;7.72;;;5.88;;
47161;SDS011;32921;53.256;8.198;2023-04-24T04:47:01;9.38;;;5.90;;
47161;SDS011;32921;53.256;8.198;2023-04-24T04:49:29;8.45;;;5.75;;
47161;SDS011;32921;53.256;8.198;2023-04-24T04:51:55;7.88;;;5.78;;
47161;SDS011;32921;53.256;8.198;2023-04-24T04:54:21;9.02;;;5.40;;
47161;SDS011;32921;53.256;8.198;2023-04-24T04:56:47;8.32;;;6.03;;
47161;SDS011;32921;53.256;8.198;2023-04-24T04:59:15;7.82;;;5.85;;
47161;SDS011;32921;53.256;8.198;2023-04-24T05:01:41;8.77;;;6.32;;
47161;SDS011;32921;53.256;8.198;2023-04-24T05:04:06;8.60;;;6.32;;
47161;SDS011;32921;53.256;8.198;2023-04-24T05:06:32;9.52;;;6.35;;
47161;SDS011;32921;53.256;8.198;2023-04-24T05:08:57;8.75;;;7.15;;
47161;SDS011;32921;53.256;8.198;2023-04-24T05:11:23;9.18;;;7.40;;
47161;SDS011;32921;53.256;8.198;2023-04-24T05:13:49;12.80;;;7.75;;
47161;SDS011;32921;53.256;8.198;2023-04-24T05:16:14;11.68;;;7.85;;
47161;SDS011;32921;53.256;8.198;2023-04-24T05:18:40;12.57;;;8.90;;
47161;SDS011;32921;53.256;8.198;2023-04-24T05:21:06;10.77;;;7.38;;
47161;SDS011;32921;53.256;8.198;2023-04-24T05:23:31;11.50;;;8.63;;
47161;SDS011;32921;53.256;8.198;2023-04-24T05:25:57;10.65;;;8.63;;
47161;SDS011;32921;53.256;8.198;2023-04-24T05:28:22;12.55;;;9.48;;
47161;SDS011;32921;53.256;8.198;2023-04-24T05:30:48;11.95;;;8.48;;
47161;SDS011;32921;53.256;8.198;2023-04-24T05:33:14;9.80;;;7.15;;
47161;SDS011;32921;53.256;8.198;2023-04-24T05:35:40;10.90;;;7.53;;
47161;SDS011;32921;53.256;8.198;2023-04-24T05:38:10;10.70;;;7.85;;
47161;SDS011;32921;53.256;8.198;2023-04-24T05:40:36;11.48;;;8.27;;
47161;SDS011;32921;53.256;8.198;2023-04-24T05:43:02;11.68;;;8.40;;
47161;SDS011;32921;53.256;8.198;2023-04-24T05:45:27;11.50;;;7.78;;
47161;SDS011;32921;53.256;8.198;2023-04-24T05:47:53;11.43;;;8.60;;
47161;SDS011;32921;53.256;8.198;2023-04-24T05:50:18;10.98;;;8.82;;
47161;SDS011;32921;53.256;8.198;2023-04-24T05:52:44;12.23;;;8.27;;
47161;SDS011;32921;53.256;8.198;2023-04-24T05:55:09;12.65;;;8.05;;
47161;SDS011;32921;53.256;8.198;2023-04-24T05:57:35;10.88;;;8.18;;
47161;SDS011;32921;53.256;8.198;2023-04-24T06:00:00;11.48;;;8.15;;
47161;SDS011;32921;53.256;8.198;2023-04-24T06:02:26;11.73;;;8.25;;
47161;SDS011;32921;53.256;8.198;2023-04-24T06:04:52;14.55;;;8.02;;
47161;SDS011;32921;53.256;8.198;2023-04-24T06:07:18;9.77;;;7.88;;
47161;SDS011;32921;53.256;8.198;2023-04-24T06:09:43;10.93;;;7.07;;
47161;SDS011;32921;53.256;8.198;2023-04-24T06:12:09;12.68;;;8.25;;
47161;SDS011;32921;53.256;8.198;2023-04-24T06:14:34;13.23;;;7.72;;
47161;SDS011;32921;53.256;8.198;2023-04-24T06:17:00;10.40;;;6.65;;
47161;SDS011;32921;53.256;8.198;2023-04-24T06:19:26;11.98;;;7.53;;
47161;SDS011;32921;53.256;8.198;2023-04-24T06:21:51;11.95;;;8.45;;
47161;SDS011;32921;53.256;8.198;2023-04-24T06:24:17;11.77;;;8.60;;
47161;SDS011;32921;53.256;8.198;2023-04-24T06:26:42;12.90;;;8.57;;
47161;SDS011;32921;53.256;8.198;2023-04-24T06:29:08;12.95;;;8.20;;
47161;SDS011;32921;53.256;8.198;2023-04-24T06:31:33;10.85;;;7.63;;
47161;SDS011;32921;53.256;8.198;2023-04-24T06:34:02;10.45;;;7.82;;
47161;SDS011;32921;53.256;8.198;2023-04-24T06:36:28;9.00;;;6.90;;
47161;SDS011;32921;53.256;8.198;2023-04-24T06:38:54;10.10;;;7.38;;
47161;SDS011;32921;53.256;8.198;2023-04-24T06:41:19;11.95;;;7.85;;
47161;SDS011;32921;53.256;8.198;2023-04-24T06:43:45;11.73;;;7.60;;
47161;SDS011;32921;53.256;8.198;2023-04-24T06:46:10;9.98;;;6.80;;
47161;SDS011;32921;53.256;8.198;2023-04-24T06:48:37;13.45;;;8.60;;
47161;SDS011;32921;53.256;8.198;2023-04-24T06:51:02;12.43;;;7.53;;
47161;SDS011;32921;53.256;8.198;2023-04-24T06:53:28;10.52;;;7.28;;
47161;SDS011;32921;53.256;8.198;2023-04-24T06:55:53;9.75;;;6.88;;
47161;SDS011;32921;53.256;8.198;2023-04-24T06:58:19;10.10;;;6.80;;
47161;SDS011;32921;53.256;8.198;2023-04-24T07:00:45;9.48;;;6.65;;
47161;SDS011;32921;53.256;8.198;2023-04-24T07:03:11;13.93;;;7.35;;
47161;SDS011;32921;53.256;8.198;2023-04-24T07:05:36;9.25;;;6.30;;
47161;SDS011;32921;53.256;8.198;2023-04-24T07:08:03;12.38;;;6.60;;
47161;SDS011;32921;53.256;8.198;2023-04-24T07:10:28;9.63;;;6.00;;
47161;SDS011;32921;53.256;8.198;2023-04-24T07:12:55;9.80;;;6.95;;
47161;SDS011;32921;53.256;8.198;2023-04-24T07:15:21;9.48;;;6.78;;
47161;SDS011;32921;53.256;8.198;2023-04-24T07:17:48;9.68;;;6.40;;
47161;SDS011;32921;53.256;8.198;2023-04-24T07:20:14;10.18;;;5.85;;
47161;SDS011;32921;53.256;8.198;2023-04-24T07:22:40;9.45;;;6.07;;
47161;SDS011;32921;53.256;8.198;2023-04-24T07:25:06;7.82;;;5.85;;
47161;SDS011;32921;53.256;8.198;2023-04-24T07:27:33;7.63;;;5.93;;
47161;SDS011;32921;53.256;8.198;2023-04-24T07:30:01;7.97;;;5.55;;
47161;SDS011;32921;53.256;8.198;2023-04-24T07:32:28;10.40;;;6.90;;
47161;SDS011;32921;53.256;8.198;2023-04-24T07:34:54;12.18;;;7.00;;
47161;SDS011;32921;53.256;8.198;2023-04-24T07:37:20;10.77;;;7.47;;
47161;SDS011;32921;53.256;8.198;2023-04-24T07:39:46;12.70;;;7.35;;
47161;SDS011;32921;53.256;8.198;2023-04-24T07:42:11;16.67;;;9.07;;
47161;SDS011;32921;53.256;8.198;2023-04-24T07:44:37;12.02;;;7.82;;
47161;SDS011;32921;53.256;8.198;2023-04-24T07:47:02;11.63;;;8.35;;
47161;SDS011;32921;53.256;8.198;2023-04-24T07:49:28;16.00;;;8.90;;
47161;SDS011;32921;53.256;8.198;2023-04-24T07:51:54;11.18;;;7.88;;
47161;SDS011;32921;53.256;8.198;2023-04-24T07:54:19;12.13;;;8.35;;
47161;SDS011;32921;53.256;8.198;2023-04-24T07:56:45;11.13;;;7.35;;
47161;SDS011;32921;53.256;8.198;2023-04-24T07:59:11;10.57;;;8.00;;
47161;SDS011;32921;53.256;8.198;2023-04-24T08:01:37;12.38;;;8.63;;
47161;SDS011;32921;53.256;8.198;2023-04-24T08:04:03;11.70;;;7.88;;
47161;SDS011;32921;53.256;8.198;2023-04-24T08:06:28;10.32;;;7.07;;
47161;SDS011;32921;53.256;8.198;2023-04-24T08:08:58;12.93;;;8.52;;
47161;SDS011;32921;53.256;8.198;2023-04-24T08:11:25;12.45;;;7.97;;
47161;SDS011;32921;53.256;8.198;2023-04-24T08:13:50;11.07;;;7.22;;
47161;SDS011;32921;53.256;8.198;2023-04-24T08:16:16;10.60;;;7.75;;
47161;SDS011;32921;53.256;8.198;2023-04-24T08:18:42;10.13;;;6.80;;
47161;SDS011;32921;53.256;8.198;2023-04-24T08:21:07;8.90;;;7.10;;
47161;SDS011;32921;53.256;8.198;2023-04-24T08:23:33;10.55;;;6.80;;
47161;SDS011;32921;53.256;8.198;2023-04-24T08:25:58;9.23;;;6.75;;
47161;SDS011;32921;53.256;8.198;2023-04-24T08:28:24;9.52;;;6.63;;
47161;SDS011;32921;53.256;8.198;2023-04-24T08:30:49;10.32;;;7.22;;
47161;SDS011;32921;53.256;8.198;2023-04-24T08:33:19;8.48;;;7.18;;
47161;SDS011;32921;53.256;8.198;2023-04-24T08:35:46;10.63;;;7.00;;
47161;SDS011;32921;53.256;8.198;2023-04-24T08:38:12;10.57;;;6.95;;
47161;SDS011;32921;53.256;8.198;2023-04-24T08:40:38;9.95;;;6.95;;
47161;SDS011;32921;53.256;8.198;2023-04-24T08:43:04;10.07;;;7.20;;
47161;SDS011;32921;53.256;8.198;2023-04-24T08:45:30;8.63;;;6.18;;
47161;SDS011;32921;53.256;8.198;2023-04-24T08:47:57;10.25;;;6.18;;
47161;SDS011;32921;53.256;8.198;2023-04-24T08:50:24;8.30;;;6.38;;
47161;SDS011;32921;53.256;8.198;2023-04-24T08:52:50;9.93;;;6.05;;
47161;SDS011;32921;53.256;8.198;2023-04-24T08:55:18;8.75;;;6.05;;
47161;SDS011;32921;53.256;8.198;2023-04-24T08:57:45;8.90;;;6.13;;
47161;SDS011;32921;53.256;8.198;2023-04-24T09:00:15;8.30;;;5.85;;
47161;SDS011;32921;53.256;8.198;2023-04-24T09:02:42;7.70;;;5.50;;
47161;SDS011;32921;53.256;8.198;2023-04-24T09:05:10;7.70;;;5.75;;
47161;SDS011;32921;53.256;8.198;2023-04-24T09:07:38;8.25;;;5.25;;
47161;SDS011;32921;53.256;8.198;2023-04-24T09:10:06;9.35;;;6.60;;
47161;SDS011;32921;53.256;8.198;2023-04-24T09:12:33;9.38;;;6.03;;
47161;SDS011;32921;53.256;8.198;2023-04-24T09:14:59;7.80;;;5.68;;
47161;SDS011;32921;53.256;8.198;2023-04-24T09:17:26;7.95;;;5.68;;
47161;SDS011;32921;53.256;8.198;2023-04-24T09:19:53;8.43;;;5.45;;
47161;SDS011;32921;53.256;8.198;2023-04-24T09:22:18;10.05;;;5.18;;
47161;SDS011;32921;53.256;8.198;2023-04-24T09:24:46;8.00;;;5.55;;
47161;SDS011;32921;53.256;8.198;2023-04-24T09:27:12;6.65;;;5.07;;
47161;SDS011;32921;53.256;8.198;2023-04-24T09:29:38;8.02;;;4.60;;
47161;SDS011;32921;53.256;8.198;2023-04-24T09:32:19;10.77;;;5.45;;
47161;SDS011;32921;53.256;8.198;2023-04-24T09:34:47;9.60;;;5.40;;
47161;SDS011;32921;53.256;8.198;2023-04-24T09:37:20;9.15;;;5.05;;
47161;SDS011;32921;53.256;8.198;2023-04-24T09:40:10;7.30;;;5.15;;
47161;SDS011;32921;53.256;8.198;2023-04-24T09:42:43;9.77;;;5.78;;
47161;SDS011;32921;53.256;8.198;2023-04-24T09:45:17;8.27;;;5.32;;
47161;SDS011;32921;53.256;8.198;2023-04-24T09:47:42;7.82;;;5.22;;
47161;SDS011;32921;53.256;8.198;2023-04-24T09:52:45;9.02;;;5.53;;
47161;SDS011;32921;53.256;8.198;2023-04-24T09:55:15;8.25;;;4.75;;
47161;SDS011;32921;53.256;8.198;2023-04-24T10:02:49;8.93;;;5.10;;
47161;SDS011;32921;53.256;8.198;2023-04-24T10:05:15;6.88;;;4.63;;
47161;SDS011;32921;53.256;8.198;2023-04-24T10:07:42;9.98;;;4.82;;
47161;SDS011;32921;53.256;8.198;2023-04-24T10:10:08;11.88;;;5.30;;
47161;SDS011;32921;53.256;8.198;2023-04-24T10:12:35;7.72;;;4.55;;
47161;SDS011;32921;53.256;8.198;2023-04-24T10:15:01;12.38;;;5.55;;
47161;SDS011;32921;53.256;8.198;2023-04-24T10:17:28;10.88;;;6.00;;
47161;SDS011;32921;53.256;8.198;2023-04-24T10:19:54;9.45;;;5.93;;
47161;SDS011;32921;53.256;8.198;2023-04-24T10:22:21;7.72;;;5.38;;
47161;SDS011;32921;53.256;8.198;2023-04-24T10:24:47;7.97;;;5.00;;
47161;SDS011;32921;53.256;8.198;2023-04-24T10:27:15;6.90;;;4.78;;
47161;SDS011;32921;53.256;8.198;2023-04-24T10:29:41;8.18;;;4.45;;
47161;SDS011;32921;53.256;8.198;2023-04-24T10:32:08;7.28;;;4.82;;
47161;SDS011;32921;53.256;8.198;2023-04-24T10:34:34;7.25;;;4.25;;
47161;SDS011;32921;53.256;8.198;2023-04-24T10:37:01;8.07;;;4.82;;
47161;SDS011;32921;53.256;8.198;2023-04-24T10:39:27;6.93;;;4.85;;
47161;SDS011;32921;53.256;8.198;2023-04-24T10:41:54;6.80;;;4.18;;
47161;SDS011;32921;53.256;8.198;2023-04-24T10:44:23;7.32;;;4.80;;
47161;SDS011;32921;53.256;8.198;2023-04-24T10:46:52;6.93;;;4.65;;
47161;SDS011;32921;53.256;8.198;2023-04-24T10:49:29;7.97;;;4.70;;
47161;SDS011;32921;53.256;8.198;2023-04-24T10:52:00;5.88;;;4.53;;
47161;SDS011;32921;53.256;8.198;2023-04-24T10:54:36;6.78;;;4.05;;
47161;SDS011;32921;53.256;8.198;2023-04-24T10:59:46;7.55;;;4.43;;
47161;SDS011;32921;53.256;8.198;2023-04-24T11:02:16;7.50;;;4.88;;
47161;SDS011;32921;53.256;8.198;2023-04-24T11:04:43;6.95;;;4.15;;
47161;SDS011;32921;53.256;8.198;2023-04-24T11:07:10;9.35;;;5.35;;
47161;SDS011;32921;53.256;8.198;2023-04-24T11:09:36;7.45;;;5.53;;
47161;SDS011;32921;53.256;8.198;2023-04-24T11:12:07;9.65;;;5.80;;
47161;SDS011;32921;53.256;8.198;2023-04-24T11:17:33;12.30;;;7.18;;
47161;SDS011;32921;53.256;8.198;2023-04-24T11:20:08;10.13;;;6.10;;
47161;SDS011;32921;53.256;8.198;2023-04-24T11:22:37;14.45;;;11.63;;
47161;SDS011;32921;53.256;8.198;2023-04-24T11:25:05;11.35;;;7.07;;
47161;SDS011;32921;53.256;8.198;2023-04-24T11:27:32;11.18;;;8.25;;
47161;SDS011;32921;53.256;8.198;2023-04-24T11:30:07;11.48;;;7.07;;
47161;SDS011;32921;53.256;8.198;2023-04-24T11:32:41;10.85;;;5.43;;
47161;SDS011;32921;53.256;8.198;2023-04-24T11:35:14;9.32;;;5.65;;
47161;SDS011;32921;53.256;8.198;2023-04-24T11:37:51;13.68;;;6.22;;
47161;SDS011;32921;53.256;8.198;2023-04-24T11:40:19;6.53;;;3.80;;
47161;SDS011;32921;53.256;8.198;2023-04-24T11:42:48;9.20;;;5.13;;
47161;SDS011;32921;53.256;8.198;2023-04-24T11:45:18;9.70;;;6.13;;
47161;SDS011;32921;53.256;8.198;2023-04-24T11:47:47;6.30;;;3.78;;
47161;SDS011;32921;53.256;8.198;2023-04-24T11:50:14;7.85;;;4.03;;
47161;SDS011;32921;53.256;8.198;2023-04-24T11:52:41;9.68;;;5.05;;
47161;SDS011;32921;53.256;8.198;2023-04-24T11:55:22;9.23;;;5.88;;
47161;SDS011;32921;53.256;8.198;2023-04-24T11:57:52;10.40;;;6.28;;
47161;SDS011;32921;53.256;8.198;2023-04-24T12:00:22;16.95;;;6.80;;
47161;SDS011;32921;53.256;8.198;2023-04-24T12:02:49;15.63;;;8.13;;
47161;SDS011;32921;53.256;8.198;2023-04-24T12:05:26;18.73;;;8.65;;
47161;SDS011;32921;53.256;8.198;2023-04-24T12:07:52;15.02;;;9.05;;
47161;SDS011;32921;53.256;8.198;2023-04-24T12:10:25;19.35;;;10.07;;
47161;SDS011;32921;53.256;8.198;2023-04-24T12:12:52;18.08;;;10.45;;
47161;SDS011;32921;53.256;8.198;2023-04-24T12:15:19;23.27;;;12.10;;
47161;SDS011;32921;53.256;8.198;2023-04-24T12:17:46;23.75;;;12.95;;
47161;SDS011;32921;53.256;8.198;2023-04-24T12:20:12;22.58;;;12.52;;
47161;SDS011;32921;53.256;8.198;2023-04-24T12:22:45;21.05;;;13.48;;
47161;SDS011;32921;53.256;8.198;2023-04-24T12:25:30;21.13;;;13.45;;
47161;SDS011;32921;53.256;8.198;2023-04-24T12:28:18;26.40;;;15.60;;
47161;SDS011;32921;53.256;8.198;2023-04-24T12:30:43;29.10;;;15.95;;
47161;SDS011;32921;53.256;8.198;2023-04-24T12:33:17;29.58;;;14.70;;
47161;SDS011;32921;53.256;8.198;2023-04-24T12:35:43;28.90;;;16.88;;
47161;SDS011;32921;53.256;8.198;2023-04-24T12:38:10;32.33;;;16.75;;
47161;SDS011;32921;53.256;8.198;2023-04-24T12:40:38;28.35;;;16.17;;
47161;SDS011;32921;53.256;8.198;2023-04-24T12:43:12;28.27;;;16.10;;
47161;SDS011;32921;53.256;8.198;2023-04-24T12:45:39;34.47;;;18.75;;
47161;SDS011;32921;53.256;8.198;2023-04-24T12:48:05;30.25;;;14.40;;
47161;SDS011;32921;53.256;8.198;2023-04-24T12:50:30;34.58;;;17.10;;
47161;SDS011;32921;53.256;8.198;2023-04-24T12:52:56;31.65;;;16.23;;
47161;SDS011;32921;53.256;8.198;2023-04-24T12:55:22;22.15;;;13.07;;
47161;SDS011;32921;53.256;8.198;2023-04-24T12:57:47;24.45;;;12.15;;
47161;SDS011;32921;53.256;8.198;2023-04-24T13:00:13;24.63;;;11.77;;
47161;SDS011;32921;53.256;8.198;2023-04-24T13:02:39;20.35;;;10.68;;
47161;SDS011;32921;53.256;8.198;2023-04-24T13:05:05;24.65;;;12.63;;
47161;SDS011;32921;53.256;8.198;2023-04-24T13:07:30;23.25;;;11.57;;
47161;SDS011;32921;53.256;8.198;2023-04-24T13:09:56;24.10;;;12.52;;
47161;SDS011;32921;53.256;8.198;2023-04-24T13:12:25;24.48;;;12.10;;
47161;SDS011;32921;53.256;8.198;2023-04-24T13:14:51;28.67;;;12.45;;
47161;SDS011;32921;53.256;8.198;2023-04-24T13:17:17;31.50;;;13.30;;
47161;SDS011;32921;53.256;8.198;2023-04-24T13:19:43;19.27;;;9.38;;
47161;SDS011;32921;53.256;8.198;2023-04-24T13:22:10;22.08;;;9.70;;
47161;SDS011;32921;53.256;8.198;2023-04-24T13:24:37;23.10;;;11.02;;
47161;SDS011;32921;53.256;8.198;2023-04-24T13:27:05;22.63;;;11.15;;
47161;SDS011;32921;53.256;8.198;2023-04-24T13:29:31;17.90;;;8.55;;
47161;SDS011;32921;53.256;8.198;2023-04-24T13:31:57;24.17;;;11.13;;
47161;SDS011;32921;53.256;8.198;2023-04-24T13:34:23;22.35;;;11.48;;
47161;SDS011;32921;53.256;8.198;2023-04-24T13:36:52;27.70;;;11.35;;
47161;SDS011;32921;53.256;8.198;2023-04-24T13:39:19;25.73;;;11.85;;
47161;SDS011;32921;53.256;8.198;2023-04-24T13:41:45;21.00;;;10.95;;
47161;SDS011;32921;53.256;8.198;2023-04-24T13:44:13;21.17;;;10.35;;
47161;SDS011;32921;53.256;8.198;2023-04-24T13:46:39;24.23;;;11.02;;
47161;SDS011;32921;53.256;8.198;2023-04-24T13:49:04;22.38;;;9.82;;
47161;SDS011;32921;53.256;8.198;2023-04-24T13:51:30;21.77;;;10.65;;
47161;SDS011;32921;53.256;8.198;2023-04-24T13:53:55;24.73;;;12.02;;
47161;SDS011;32921;53.256;8.198;2023-04-24T13:56:21;29.42;;;10.82;;
47161;SDS011;32921;53.256;8.198;2023-04-24T13:58:47;22.08;;;9.73;;
47161;SDS011;32921;53.256;8.198;2023-04-24T14:01:13;23.30;;;10.82;;
47161;SDS011;32921;53.256;8.198;2023-04-24T14:03:40;27.65;;;10.35;;
47161;SDS011;32921;53.256;8.198;2023-04-24T14:06:06;27.15;;;9.93;;
47161;SDS011;32921;53.256;8.198;2023-04-24T14:08:32;27.40;;;10.15;;
47161;SDS011;32921;53.256;8.198;2023-04-24T14:10:58;26.73;;;9.35;;
47161;SDS011;32921;53.256;8.198;2023-04-24T14:13:23;22.25;;;9.02;;
47161;SDS011;32921;53.256;8.198;2023-04-24T14:15:49;21.88;;;9.10;;
47161;SDS011;32921;53.256;8.198;2023-04-24T14:18:15;24.85;;;9.05;;
47161;SDS011;32921;53.256;8.198;2023-04-24T14:20:42;16.95;;;8.05;;
47161;SDS011;32921;53.256;8.198;2023-04-24T14:23:07;21.52;;;8.85;;
47161;SDS011;32921;53.256;8.198;2023-04-24T14:25:33;16.55;;;8.07;;
47161;SDS011;32921;53.256;8.198;2023-04-24T14:27:59;23.88;;;8.93;;
47161;SDS011;32921;53.256;8.198;2023-04-24T14:30:24;27.85;;;8.80;;
47161;SDS011;32921;53.256;8.198;2023-04-24T14:32:50;24.05;;;8.95;;
47161;SDS011;32921;53.256;8.198;2023-04-24T14:35:16;21.75;;;8.25;;
47161;SDS011;32921;53.256;8.198;2023-04-24T14:37:41;25.65;;;8.98;;
47161;SDS011;32921;53.256;8.198;2023-04-24T14:40:08;16.27;;;6.50;;
47161;SDS011;32921;53.256;8.198;2023-04-24T14:42:34;20.33;;;7.82;;
47161;SDS011;32921;53.256;8.198;2023-04-24T14:45:00;26.65;;;8.18;;
47161;SDS011;32921;53.256;8.198;2023-04-24T14:47:26;28.67;;;8.27;;
47161;SDS011;32921;53.256;8.198;2023-04-24T14:49:53;16.02;;;5.85;;
47161;SDS011;32921;53.256;8.198;2023-04-24T14:52:19;21.45;;;6.95;;
47161;SDS011;32921;53.256;8.198;2023-04-24T14:54:45;17.80;;;6.05;;
47161;SDS011;32921;53.256;8.198;2023-04-24T14:57:10;24.63;;;6.97;;